createdAt,value
2022-08-16T00:00:20.386Z,99.90
2022-08-16T00:02:51.715Z,99.90
2022-08-16T00:05:21.029Z,99.90
2022-08-16T00:07:49.770Z,99.90
2022-08-16T00:10:28.657Z,99.90
2022-08-16T00:12:56.952Z,99.90
2022-08-16T00:15:52.211Z,99.90
2022-08-16T00:18:29.899Z,99.90
2022-08-16T00:20:59.985Z,99.90
2022-08-16T00:23:40.363Z,99.90
2022-08-16T00:26:35.476Z,99.90
2022-08-16T00:29:03.548Z,99.90
2022-08-16T00:31:58.944Z,99.90
2022-08-16T00:34:44.167Z,99.90
2022-08-16T00:37:11.592Z,99.90
2022-08-16T00:39:39.698Z,99.90
2022-08-16T00:42:10.416Z,99.90
2022-08-16T00:44:40.855Z,99.90
2022-08-16T00:47:16.304Z,99.90
2022-08-16T00:49:45.036Z,99.90
2022-08-16T00:52:29.951Z,99.90
2022-08-16T00:54:59.668Z,99.90
2022-08-16T00:57:59.051Z,99.90
2022-08-16T01:00:19.945Z,99.90
2022-08-16T01:02:52.117Z,99.90
2022-08-16T01:05:23.964Z,99.90
2022-08-16T01:07:53.611Z,99.90
2022-08-16T01:10:32.829Z,99.90
2022-08-16T01:13:07.781Z,99.90
2022-08-16T01:15:42.986Z,99.90
2022-08-16T01:18:39.226Z,99.90
2022-08-16T01:21:22.553Z,99.90
2022-08-16T01:24:02.275Z,99.90
2022-08-16T01:26:34.795Z,99.90
2022-08-16T01:29:10.438Z,99.90
2022-08-16T01:31:42.515Z,99.90
2022-08-16T01:34:25.237Z,99.90
2022-08-16T01:37:04.534Z,99.90
2022-08-16T01:39:35.534Z,99.90
2022-08-16T01:42:07.708Z,99.90
2022-08-16T01:44:41.730Z,99.90
2022-08-16T01:47:12.123Z,99.90
2022-08-16T01:50:40.963Z,99.90
2022-08-16T01:52:31.970Z,99.90
2022-08-16T01:55:02.478Z,99.90
2022-08-16T01:57:31.589Z,99.90
2022-08-16T02:00:00.591Z,99.90
2022-08-16T02:02:29.199Z,99.90
2022-08-16T02:04:58.070Z,99.90
2022-08-16T02:07:26.098Z,99.90
2022-08-16T02:09:57.481Z,99.90
2022-08-16T02:12:49.512Z,99.90
2022-08-16T02:15:24.823Z,99.90
2022-08-16T02:17:54.193Z,99.90
2022-08-16T02:20:26.199Z,99.90
2022-08-16T02:22:55.865Z,99.90
2022-08-16T02:25:24.666Z,99.90
2022-08-16T02:27:54.074Z,99.90
2022-08-16T02:30:35.765Z,99.90
2022-08-16T02:33:07.471Z,99.90
2022-08-16T02:35:54.542Z,99.90
2022-08-16T02:38:25.729Z,99.90
2022-08-16T02:40:54.945Z,99.90
2022-08-16T02:43:26.933Z,99.90
2022-08-16T02:45:55.772Z,99.90
2022-08-16T02:48:28.983Z,99.90
2022-08-16T02:51:05.933Z,99.90
2022-08-16T02:53:43.035Z,99.90
2022-08-16T02:56:14.620Z,99.90
2022-08-16T02:58:45.888Z,99.90
2022-08-16T03:01:24.101Z,99.90
2022-08-16T03:04:39.482Z,99.90
2022-08-16T03:06:43.219Z,99.90
2022-08-16T03:09:14.941Z,99.90
2022-08-16T03:11:44.698Z,99.90
2022-08-16T03:14:14.208Z,99.90
2022-08-16T03:16:59.437Z,99.90
2022-08-16T03:19:47.531Z,99.90
2022-08-16T03:22:19.244Z,99.90
2022-08-16T03:24:57.889Z,99.90
2022-08-16T03:27:31.203Z,99.90
2022-08-16T03:30:16.333Z,99.90
2022-08-16T03:32:47.351Z,99.90
2022-08-16T03:35:18.170Z,99.90
2022-08-16T03:38:01.732Z,99.90
2022-08-16T03:40:33.811Z,99.90
2022-08-16T03:43:20.518Z,99.90
2022-08-16T03:45:52.539Z,99.90
2022-08-16T03:48:36.739Z,99.90
2022-08-16T03:51:10.176Z,99.90
2022-08-16T03:53:41.210Z,99.90
2022-08-16T03:56:19.536Z,99.90
2022-08-16T03:58:48.574Z,99.90
2022-08-16T04:01:20.882Z,99.90
2022-08-16T04:03:50.125Z,99.90
2022-08-16T04:06:18.743Z,99.90
2022-08-16T04:08:48.066Z,99.90
2022-08-16T04:11:17.189Z,99.90
2022-08-16T04:13:59.286Z,99.90
2022-08-16T04:16:31.271Z,99.90
2022-08-16T04:19:02.244Z,99.90
2022-08-16T04:21:32.545Z,99.90
2022-08-16T04:24:00.927Z,99.90
2022-08-16T04:26:30.805Z,99.90
2022-08-16T04:29:16.794Z,99.90
2022-08-16T04:31:56.913Z,99.90
2022-08-16T04:34:27.821Z,99.90
2022-08-16T04:36:56.617Z,99.90
2022-08-16T04:39:36.510Z,99.90
2022-08-16T04:42:13.438Z,99.90
2022-08-16T04:44:53.389Z,99.90
2022-08-16T04:47:31.283Z,99.90
2022-08-16T04:50:00.245Z,99.90
2022-08-16T04:52:34.900Z,99.90
2022-08-16T04:55:07.438Z,99.90
2022-08-16T04:57:36.781Z,99.90
2022-08-16T05:00:32.609Z,99.90
2022-08-16T05:02:58.943Z,99.90
2022-08-16T05:05:30.641Z,99.90
2022-08-16T05:08:29.598Z,99.90
2022-08-16T05:10:53.456Z,99.90
2022-08-16T05:13:40.915Z,99.90
2022-08-16T05:16:11.854Z,99.90
2022-08-16T05:18:45.818Z,99.90
2022-08-16T05:21:15.109Z,99.90
2022-08-16T05:23:51.468Z,99.90
2022-08-16T05:26:20.524Z,99.90
2022-08-16T05:28:55.311Z,99.90
2022-08-16T05:31:24.099Z,99.90
2022-08-16T05:34:00.725Z,99.90
2022-08-16T05:36:34.115Z,99.90
2022-08-16T05:39:06.485Z,99.90
2022-08-16T05:41:44.793Z,99.90
2022-08-16T05:44:23.662Z,99.90
2022-08-16T05:46:54.605Z,99.90
2022-08-16T05:49:25.360Z,99.90
2022-08-16T05:52:11.288Z,99.90
2022-08-16T05:54:46.545Z,99.90
2022-08-16T05:57:16.744Z,99.90
2022-08-16T05:59:45.492Z,99.90
2022-08-16T06:02:14.337Z,99.90
2022-08-16T06:04:45.227Z,99.90
2022-08-16T06:07:24.991Z,99.90
2022-08-16T06:09:58.234Z,99.90
2022-08-16T06:12:29.398Z,99.90
2022-08-16T06:14:59.877Z,99.90
2022-08-16T06:17:42.875Z,99.90
2022-08-16T06:20:18.495Z,99.90
2022-08-16T06:23:03.068Z,99.90
2022-08-16T06:25:36.321Z,99.90
2022-08-16T06:28:09.481Z,99.90
2022-08-16T06:30:43.984Z,99.90
2022-08-16T06:33:22.013Z,99.90
2022-08-16T06:35:55.196Z,99.90
2022-08-16T06:38:33.413Z,99.90
2022-08-16T06:41:04.942Z,99.90
2022-08-16T06:43:34.334Z,99.90
2022-08-16T06:46:04.178Z,99.90
2022-08-16T06:48:33.894Z,99.90
2022-08-16T06:51:04.705Z,99.90
2022-08-16T06:53:36.450Z,99.90
2022-08-16T06:56:14.590Z,99.90
2022-08-16T06:58:47.713Z,99.90
2022-08-16T07:01:16.069Z,99.90
2022-08-16T07:03:55.775Z,99.90
2022-08-16T07:06:27.288Z,99.90
2022-08-16T07:08:56.100Z,99.90
2022-08-16T07:11:45.809Z,99.90
2022-08-16T07:14:24.693Z,99.90
2022-08-16T07:16:58.346Z,99.90
2022-08-16T07:20:01.712Z,99.90
2022-08-16T07:22:37.459Z,99.90
2022-08-16T07:25:08.373Z,99.90
2022-08-16T07:27:38.165Z,99.90
2022-08-16T07:30:39.015Z,99.90
2022-08-16T07:32:57.360Z,99.90
2022-08-16T07:35:26.178Z,99.90
2022-08-16T07:37:55.609Z,99.90
2022-08-16T07:40:48.995Z,99.90
2022-08-16T07:43:11.903Z,99.90
2022-08-16T07:45:42.231Z,99.90
2022-08-16T07:48:12.467Z,99.90
2022-08-16T07:50:56.494Z,99.90
2022-08-16T07:53:28.913Z,99.90
2022-08-16T07:55:57.853Z,99.90
2022-08-16T07:58:34.525Z,99.90
2022-08-16T08:01:10.657Z,99.90
2022-08-16T08:03:42.509Z,99.90
2022-08-16T08:06:11.877Z,99.90
2022-08-16T08:08:51.668Z,99.90
2022-08-16T08:11:23.572Z,99.90
2022-08-16T08:13:53.436Z,99.90
2022-08-16T08:16:30.715Z,99.90
2022-08-16T08:19:02.276Z,99.90
2022-08-16T08:21:58.523Z,99.90
2022-08-16T08:24:31.652Z,99.90
2022-08-16T08:27:02.081Z,99.90
2022-08-16T08:29:37.203Z,99.90
2022-08-16T08:32:57.572Z,99.90
2022-08-16T08:35:00.270Z,99.90
2022-08-16T08:37:53.824Z,99.90
2022-08-16T08:40:24.567Z,99.90
2022-08-16T08:42:57.776Z,99.90
2022-08-16T08:45:46.973Z,99.90
2022-08-16T08:48:33.518Z,99.90
2022-08-16T08:51:03.482Z,99.90
2022-08-16T08:53:32.691Z,99.90
2022-08-16T08:56:23.021Z,99.90
2022-08-16T08:58:54.061Z,99.90
2022-08-16T09:01:31.709Z,99.90
2022-08-16T09:04:05.451Z,99.90
2022-08-16T09:06:34.140Z,99.90
2022-08-16T09:09:03.471Z,99.90
2022-08-16T09:11:40.583Z,99.90
2022-08-16T09:14:24.133Z,99.90
2022-08-16T09:17:01.662Z,99.90
2022-08-16T09:19:33.700Z,99.90
2022-08-16T09:22:02.280Z,99.90
2022-08-16T09:24:46.817Z,99.90
2022-08-16T09:27:20.082Z,99.90
2022-08-16T09:29:48.787Z,99.90
2022-08-16T09:32:30.723Z,99.90
2022-08-16T09:34:59.961Z,99.90
2022-08-16T09:37:29.535Z,99.90
2022-08-16T09:39:59.684Z,99.90
2022-08-16T09:42:30.562Z,99.90
2022-08-16T09:45:18.820Z,99.90
2022-08-16T09:47:57.593Z,99.90
2022-08-16T09:50:37.179Z,99.90
2022-08-16T09:53:15.049Z,99.90
2022-08-16T09:55:49.518Z,99.90
2022-08-16T09:58:37.648Z,99.60
2022-08-16T10:01:08.567Z,98.50
2022-08-16T10:04:02.233Z,97.80
2022-08-16T10:06:33.226Z,97.40
2022-08-16T10:09:05.866Z,96.30
2022-08-16T10:11:52.701Z,95.60
2022-08-16T10:14:32.808Z,94.80
2022-08-16T10:17:03.542Z,93.70
2022-08-16T10:19:32.462Z,93.10
2022-08-16T10:22:04.841Z,92.10
2022-08-16T10:24:34.300Z,91.40
2022-08-16T10:27:21.775Z,90.90
2022-08-16T10:30:01.218Z,90.30
2022-08-16T10:32:35.551Z,89.40
2022-08-16T10:35:08.411Z,87.40
2022-08-16T10:37:36.700Z,84.70
2022-08-16T10:40:28.608Z,83.80
2022-08-16T10:42:56.138Z,84.70
2022-08-16T10:45:27.245Z,86.10
2022-08-16T10:48:03.146Z,86.10
2022-08-16T10:50:32.457Z,86.40
2022-08-16T10:53:05.817Z,87.60
2022-08-16T10:55:40.446Z,88.90
2022-08-16T10:58:17.131Z,89.50
2022-08-16T11:00:47.824Z,89.30
2022-08-16T11:06:07.455Z,90.10
2022-08-16T11:08:43.363Z,90.00
2022-08-16T11:14:05.927Z,87.40
2022-08-16T11:19:30.284Z,88.10
2022-08-16T11:22:38.878Z,89.00
2022-08-16T11:24:46.631Z,89.50
2022-08-16T11:27:35.924Z,89.50
2022-08-16T11:30:09.174Z,90.20
2022-08-16T11:32:44.369Z,90.00
2022-08-16T11:35:16.595Z,88.10
2022-08-16T11:40:40.860Z,85.70
2022-08-16T11:43:16.665Z,85.60
2022-08-16T11:45:53.913Z,84.30
2022-08-16T11:48:24.796Z,82.10
2022-08-16T11:50:52.857Z,79.60
2022-08-16T11:53:21.978Z,78.00
2022-08-16T11:55:54.602Z,76.10
2022-08-16T11:58:24.719Z,74.10
2022-08-16T12:00:54.995Z,72.30
2022-08-16T12:03:31.119Z,70.90
2022-08-16T12:06:08.118Z,70.70
2022-08-16T12:08:39.835Z,70.90
2022-08-16T12:11:09.811Z,72.30
2022-08-16T12:13:38.264Z,73.00
2022-08-16T12:16:09.122Z,73.90
2022-08-16T12:18:40.129Z,75.00
2022-08-16T12:21:09.771Z,76.60
2022-08-16T12:23:38.250Z,78.30
2022-08-16T12:26:10.588Z,79.70
2022-08-16T12:28:56.191Z,81.10
2022-08-16T12:31:25.735Z,82.80
2022-08-16T12:33:57.546Z,84.60
2022-08-16T12:36:26.174Z,86.20
2022-08-16T12:38:58.038Z,87.70
2022-08-16T12:41:27.012Z,89.30
2022-08-16T12:43:57.193Z,90.10
2022-08-16T12:46:30.933Z,90.40
2022-08-16T12:49:01.098Z,90.80
2022-08-16T12:51:58.293Z,90.70
2022-08-16T12:54:21.406Z,91.00
2022-08-16T12:56:50.769Z,91.00
2022-08-16T12:59:20.859Z,92.40
2022-08-16T13:01:50.327Z,95.30
2022-08-16T13:04:24.372Z,98.80
2022-08-16T13:06:53.299Z,99.90
2022-08-16T13:09:26.018Z,99.90
2022-08-16T13:12:04.328Z,99.90
2022-08-16T13:14:34.887Z,99.90
2022-08-16T13:17:06.601Z,99.90
2022-08-16T13:20:05.957Z,99.90
2022-08-16T13:22:25.970Z,99.90
2022-08-16T13:24:54.634Z,99.90
2022-08-16T13:27:34.899Z,99.90
2022-08-16T13:30:35.508Z,99.90
2022-08-16T13:33:01.262Z,99.90
2022-08-16T13:35:34.577Z,99.90
2022-08-16T13:38:03.232Z,99.90
2022-08-16T13:40:31.474Z,99.90
2022-08-16T13:43:00.077Z,99.90
2022-08-16T13:45:28.365Z,99.90
2022-08-16T13:48:06.533Z,99.90
2022-08-16T13:50:51.611Z,99.90
2022-08-16T13:53:24.279Z,99.90
2022-08-16T13:55:58.497Z,99.90
2022-08-16T13:58:36.677Z,99.90
2022-08-16T14:01:09.660Z,99.90
2022-08-16T14:03:39.513Z,99.90
2022-08-16T14:06:10.841Z,99.90
2022-08-16T14:08:42.186Z,99.90
2022-08-16T14:11:12.365Z,99.90
2022-08-16T14:13:42.096Z,99.90
2022-08-16T14:16:24.287Z,99.90
2022-08-16T14:18:58.330Z,99.90
2022-08-16T14:21:27.764Z,99.90
2022-08-16T14:24:07.801Z,99.90
2022-08-16T14:26:45.092Z,99.90
2022-08-16T14:29:13.307Z,99.90
2022-08-16T14:31:41.604Z,99.90
2022-08-16T14:34:11.362Z,99.90
2022-08-16T14:36:42.080Z,99.90
2022-08-16T14:39:10.296Z,99.90
2022-08-16T14:41:39.591Z,99.90
2022-08-16T14:44:09.402Z,99.90
2022-08-16T14:46:37.784Z,99.90
2022-08-16T14:49:09.095Z,99.90
2022-08-16T14:51:37.556Z,99.90
2022-08-16T14:54:11.314Z,99.90
2022-08-16T14:56:46.646Z,99.90
2022-08-16T14:59:15.070Z,99.90
2022-08-16T15:01:58.986Z,99.90
2022-08-16T15:04:37.873Z,99.90
2022-08-16T15:07:10.805Z,99.90
2022-08-16T15:09:44.640Z,99.90
2022-08-16T15:12:31.026Z,99.90
2022-08-16T15:15:04.566Z,99.90
2022-08-16T15:17:42.182Z,99.90
2022-08-16T15:20:23.077Z,99.90
2022-08-16T15:22:55.249Z,99.90
2022-08-16T15:25:29.611Z,99.90
2022-08-16T15:27:58.818Z,99.90
2022-08-16T15:30:47.742Z,99.90
2022-08-16T15:33:18.552Z,99.90
2022-08-16T15:35:52.543Z,99.90
2022-08-16T15:38:55.266Z,99.90
2022-08-16T15:41:13.650Z,99.90
2022-08-16T15:43:41.700Z,99.90
2022-08-16T15:46:35.768Z,99.90
2022-08-16T15:49:12.461Z,99.90
2022-08-16T15:51:43.541Z,99.90
2022-08-16T15:54:20.893Z,99.90
2022-08-16T15:57:05.924Z,99.90
2022-08-16T15:59:48.703Z,99.90
2022-08-16T16:02:29.417Z,99.90
2022-08-16T16:05:00.474Z,99.90
2022-08-16T16:07:30.035Z,99.90
2022-08-16T16:09:59.263Z,99.90
2022-08-16T16:12:51.224Z,99.90
2022-08-16T16:15:18.996Z,99.90
2022-08-16T16:17:52.340Z,99.90
2022-08-16T16:20:24.499Z,99.90
2022-08-16T16:22:57.012Z,99.90
2022-08-16T16:25:26.591Z,99.90
2022-08-16T16:27:59.804Z,99.90
2022-08-16T16:30:33.601Z,99.90
2022-08-16T16:33:20.605Z,99.90
2022-08-16T16:35:55.704Z,99.90
2022-08-16T16:38:28.807Z,99.90
2022-08-16T16:40:57.838Z,99.90
2022-08-16T16:43:31.550Z,99.90
2022-08-16T16:46:00.485Z,99.90
2022-08-16T16:48:35.076Z,99.90
2022-08-16T16:51:09.358Z,99.90
2022-08-16T16:53:42.119Z,99.90
2022-08-16T16:56:20.327Z,99.90
2022-08-16T16:58:56.284Z,99.90
2022-08-16T17:01:41.280Z,99.90
2022-08-16T17:04:19.773Z,99.90
2022-08-16T17:06:53.429Z,99.90
2022-08-16T17:09:21.936Z,99.90
2022-08-16T17:11:54.772Z,99.90
2022-08-16T17:14:32.913Z,99.90
2022-08-16T17:17:13.932Z,99.90
2022-08-16T17:19:42.480Z,99.90
2022-08-16T17:22:14.377Z,99.90
2022-08-16T17:24:45.027Z,99.90
2022-08-16T17:27:18.064Z,99.90
2022-08-16T17:29:51.383Z,99.90
2022-08-16T17:32:33.791Z,99.90
2022-08-16T17:35:18.512Z,99.90
2022-08-16T17:37:51.781Z,99.90
2022-08-16T17:40:34.003Z,99.90
2022-08-16T17:43:13.332Z,99.90
2022-08-16T17:45:43.620Z,99.90
2022-08-16T17:48:12.026Z,99.90
2022-08-16T17:50:41.630Z,99.90
2022-08-16T17:53:11.862Z,99.90
2022-08-16T17:55:42.317Z,99.90
2022-08-16T17:58:23.373Z,99.90
2022-08-16T18:00:56.686Z,99.90
2022-08-16T18:04:07.807Z,99.90
2022-08-16T18:06:16.708Z,99.90
2022-08-16T18:08:48.279Z,99.90
2022-08-16T18:11:18.238Z,99.90
2022-08-16T18:13:46.621Z,99.90
2022-08-16T18:16:17.046Z,99.90
2022-08-16T18:18:46.085Z,99.90
2022-08-16T18:21:33.746Z,99.90
2022-08-16T18:24:02.231Z,99.90
2022-08-16T18:26:30.362Z,99.90
2022-08-16T18:28:58.435Z,99.90
2022-08-16T18:31:27.864Z,99.90
2022-08-16T18:33:56.377Z,99.90
2022-08-16T18:36:24.756Z,99.90
2022-08-16T18:38:54.143Z,99.90
2022-08-16T18:41:25.466Z,99.90
2022-08-16T18:43:55.503Z,99.90
2022-08-16T18:46:45.691Z,99.90
2022-08-16T18:49:17.999Z,99.90
2022-08-16T18:51:46.472Z,99.90
2022-08-16T18:54:18.136Z,99.90
2022-08-16T18:56:57.349Z,99.90
2022-08-16T18:59:28.143Z,99.90
2022-08-16T19:02:00.093Z,99.90
2022-08-16T19:04:47.875Z,99.90
2022-08-16T19:07:21.396Z,99.90
2022-08-16T19:09:49.505Z,99.90
2022-08-16T19:12:17.547Z,99.90
2022-08-16T19:15:08.288Z,99.90
2022-08-16T19:17:41.731Z,99.90
2022-08-16T19:20:11.345Z,99.90
2022-08-16T19:25:46.316Z,99.90
2022-08-16T19:28:52.003Z,99.90
2022-08-16T19:31:06.242Z,99.90
2022-08-16T19:33:36.034Z,99.90
2022-08-16T19:36:05.922Z,99.90
2022-08-16T19:38:34.222Z,99.90
2022-08-16T19:41:02.519Z,99.90
2022-08-16T19:43:30.498Z,99.90
2022-08-16T19:45:58.584Z,99.90
2022-08-16T19:48:26.759Z,99.90
2022-08-16T19:50:56.146Z,99.90
2022-08-16T19:53:24.919Z,99.90
2022-08-16T19:55:52.962Z,99.90
2022-08-16T19:58:21.386Z,99.90
2022-08-16T20:00:51.060Z,99.90
2022-08-16T20:03:24.512Z,99.90
2022-08-16T20:05:53.069Z,99.90
2022-08-16T20:08:22.653Z,99.90
2022-08-16T20:10:51.205Z,99.90
2022-08-16T20:13:21.553Z,99.90
2022-08-16T20:15:50.890Z,99.90
2022-08-16T20:18:24.482Z,99.90
2022-08-16T20:20:53.710Z,99.90
2022-08-16T20:23:25.334Z,99.90
2022-08-16T20:25:55.638Z,99.90
2022-08-16T20:28:52.860Z,99.90
2022-08-16T20:31:12.361Z,99.90
2022-08-16T20:33:40.496Z,99.90
2022-08-16T20:36:09.274Z,99.90
2022-08-16T20:38:47.657Z,99.90
2022-08-16T20:41:15.972Z,99.90
2022-08-16T20:43:44.123Z,99.90
2022-08-16T20:46:14.003Z,99.90
2022-08-16T20:48:42.138Z,99.90
2022-08-16T20:51:11.389Z,99.90
2022-08-16T20:53:39.478Z,99.90
2022-08-16T20:56:10.564Z,99.90
2022-08-16T20:58:38.741Z,99.90
2022-08-16T21:01:07.789Z,99.90
2022-08-16T21:03:36.448Z,99.90
2022-08-16T21:06:05.462Z,99.90
2022-08-16T21:08:52.132Z,99.90
2022-08-16T21:11:23.588Z,99.90
2022-08-16T21:14:00.280Z,99.90
2022-08-16T21:16:28.940Z,99.90
2022-08-16T21:18:57.784Z,99.90
2022-08-16T21:21:31.917Z,99.90
2022-08-16T21:24:02.044Z,99.90
2022-08-16T21:26:31.433Z,99.90
2022-08-16T21:28:59.448Z,99.90
2022-08-16T21:31:27.476Z,99.90
2022-08-16T21:33:56.471Z,99.90
2022-08-16T21:36:35.854Z,99.90
2022-08-16T21:39:06.675Z,99.90
2022-08-16T21:41:38.408Z,99.90
2022-08-16T21:44:06.639Z,99.90
2022-08-16T21:46:34.723Z,99.90
2022-08-16T21:49:04.638Z,99.90
2022-08-16T21:51:33.093Z,99.90
2022-08-16T21:54:01.232Z,99.90
2022-08-16T21:56:29.687Z,99.90
2022-08-16T21:58:58.996Z,99.90
2022-08-16T22:01:27.534Z,99.90
2022-08-16T22:04:03.530Z,99.90
2022-08-16T22:06:44.271Z,99.90
2022-08-16T22:09:15.521Z,99.90
2022-08-16T22:11:43.873Z,99.90
2022-08-16T22:14:13.395Z,99.90
2022-08-16T22:16:43.468Z,99.90
2022-08-16T22:19:13.240Z,99.90
2022-08-16T22:21:41.329Z,99.90
2022-08-16T22:24:10.726Z,99.90
2022-08-16T22:26:43.013Z,99.90
2022-08-16T22:29:15.038Z,99.90
2022-08-16T22:31:44.395Z,99.90
2022-08-16T22:34:13.186Z,99.90
2022-08-16T22:36:41.519Z,99.90
2022-08-16T22:39:12.042Z,99.90
2022-08-16T22:41:42.137Z,99.90
2022-08-16T22:44:10.527Z,99.90
2022-08-16T22:46:40.195Z,99.90
2022-08-16T22:49:08.975Z,99.90
2022-08-16T22:51:37.758Z,99.90
2022-08-16T22:54:39.328Z,99.90
2022-08-16T22:56:54.849Z,99.90
2022-08-16T22:59:24.870Z,99.90
2022-08-16T23:01:54.567Z,99.90
2022-08-16T23:04:23.926Z,99.90
2022-08-16T23:06:52.180Z,99.90
2022-08-16T23:09:20.349Z,99.90
2022-08-16T23:11:48.422Z,99.90
2022-08-16T23:14:16.850Z,99.90
2022-08-16T23:16:47.041Z,99.90
2022-08-16T23:19:17.835Z,99.90
2022-08-16T23:21:48.936Z,99.90
2022-08-16T23:24:19.438Z,99.90
2022-08-16T23:26:49.242Z,99.90
2022-08-16T23:29:24.580Z,99.90
2022-08-16T23:31:55.704Z,99.90
2022-08-16T23:34:26.763Z,99.90
2022-08-16T23:36:54.848Z,99.90
2022-08-16T23:39:23.311Z,99.90
2022-08-16T23:41:51.945Z,99.90
2022-08-16T23:44:55.146Z,99.90
2022-08-16T23:47:08.291Z,99.90
2022-08-16T23:49:58.570Z,99.90
2022-08-16T23:52:53.917Z,99.90
2022-08-16T23:55:16.951Z,99.90
2022-08-16T23:57:46.280Z,99.90
